Eviapetrol IV — SVBT7 — position and weather

sailwx.info

Track history (hours):
 
Tides and Currents Weather Stations Pressure Air Temp Water Temp Dewpoint Dewpoint Depression Visibility Wind Speed Wind Dir Waves Ship Positions

Eviapetrol IV

Last reported at 2018-Jul-18 09:41 UTC. Time now 2018-Jul-19 23:10 UTC.
Position N 37°31' E 023°40'.

Length 92 m; draft 5.5 m.

Type: Tanker. MMSI: 241262000.

Date/timePositionNaut miles runAvg speedWind from/ knotsBaromVisibWave heightAir tempDewpointWater temp
2018-Jul-18 09:41N 37°31' E 023°40'312.5
2018-Jul-18 09:29N 37°33' E 023°37'712.5
2018-Jul-18 08:57N 37°37' E 023°31'511.8
2018-Jul-18 08:30N 37°39' E 023°25'612.0
2018-Jul-18 08:00N 37°40' E 023°17'612.4
2018-Jul-18 07:30N 37°46' E 023°15'612.9
2018-Jul-18 07:00N 37°51' E 023°10'5 9.1
2018-Jul-18 06:30N 37°54' E 023°06'1 2.0
2018-Jul-18 06:00N 37°55' E 023°05'0 0.0
2018-Jul-18 05:30N 37°55' E 023°05'0 0.0
2018-Jul-18 05:00N 37°55' E 023°05'0 0.0
2018-Jul-18 04:30N 37°55' E 023°05'0 0.0
2018-Jul-18 04:00N 37°55' E 023°05'0 0.0
2018-Jul-18 03:30N 37°55' E 023°05'0 0.0
2018-Jul-18 03:00N 37°55' E 023°05'0 0.0
2018-Jul-18 02:30N 37°55' E 023°05'0 0.0
2018-Jul-18 02:00N 37°55' E 023°05'0 0.0
2018-Jul-18 01:30N 37°55' E 023°05'0 0.0
2018-Jul-18 01:00N 37°55' E 023°05'0 0.0
2018-Jul-18 00:30N 37°55' E 023°05'0 0.0
2018-Jul-18 00:00N 37°55' E 023°05'0 0.0
2018-Jul-17 23:30N 37°55' E 023°05'0 0.0
2018-Jul-17 23:00N 37°55' E 023°05'0 0.0
2018-Jul-17 22:30N 37°55' E 023°05'0 0.0
2018-Jul-17 22:00N 37°55' E 023°05'0 0.0
2018-Jul-17 21:30N 37°55' E 023°05'0 0.0
2018-Jul-17 21:00N 37°55' E 023°05'0 0.0
2018-Jul-17 20:30N 37°55' E 023°05'0 0.0
2018-Jul-17 20:00N 37°55' E 023°05'0 0.0
2018-Jul-17 19:30N 37°55' E 023°05'0 0.0
2018-Jul-17 19:00N 37°55' E 023°05'0 0.0
2018-Jul-17 18:30N 37°55' E 023°05'0 0.0
2018-Jul-17 18:00N 37°55' E 023°05'0 0.0
2018-Jul-17 17:30N 37°55' E 023°05'0 0.0
2018-Jul-17 17:00N 37°55' E 023°05'0 0.0
2018-Jul-17 16:30N 37°55' E 023°05'0 0.0
2018-Jul-17 16:00N 37°55' E 023°05'0 0.0
2018-Jul-17 15:30N 37°55' E 023°05'0 0.0
2018-Jul-17 15:00N 37°55' E 023°05'0 0.0
2018-Jul-17 14:30N 37°55' E 023°05'0 0.0
2018-Jul-17 14:00N 37°55' E 023°05'0 0.0
2018-Jul-17 13:30N 37°55' E 023°05'0 0.0
2018-Jul-17 13:00N 37°55' E 023°05'0 0.0
2018-Jul-17 12:30N 37°55' E 023°05'0 0.0
2018-Jul-17 12:00N 37°55' E 023°05'0 0.0
2018-Jul-17 11:30N 37°55' E 023°05'0 0.0
2018-Jul-17 11:00N 37°55' E 023°05'0 0.0
2018-Jul-17 10:30N 37°55' E 023°05'0 0.0
2018-Jul-17 10:00N 37°55' E 023°05'1 1.1
2018-Jul-17 09:30N 37°55' E 023°06'4 7.3
2018-Jul-17 09:00N 37°52' E 023°09'510.9
2018-Jul-17 08:30N 37°48' E 023°13'612.7
2018-Jul-17 08:00N 37°42' E 023°17'611.1
2018-Jul-17 07:30N 37°39' E 023°23'612.3
2018-Jul-17 07:01N 37°37' E 023°31'612.4
2018-Jul-17 06:30N 37°33' E 023°37'612.3
2018-Jul-17 06:00N 37°29' E 023°43'612.1
2018-Jul-17 05:30N 37°26' E 023°49'612.4
2018-Jul-17 05:00N 37°22' E 023°55'612.8
2018-Jul-17 04:30N 37°17' E 024°01'912.9
2018-Jul-17 03:50N 37°12' E 024°09'  
2018-Jul-12 17:25N 37°28' E 023°44'512.1
2018-Jul-12 16:59N 37°31' E 023°39'612.1
2018-Jul-12 16:30N 37°35' E 023°33'611.9
2018-Jul-12 16:00N 37°39' E 023°27'611.7
2018-Jul-12 15:30N 37°40' E 023°20'510.2
2018-Jul-12 15:00N 37°44' E 023°17'612.0
2018-Jul-12 14:30N 37°49' E 023°12'612.0
2018-Jul-12 14:00N 37°54' E 023°07'2 4.5
2018-Jul-12 13:30N 37°55' E 023°05'0 0.0
2018-Jul-12 13:00N 37°55' E 023°05'0 0.0
2018-Jul-12 12:30N 37°55' E 023°05'0 0.0
2018-Jul-12 12:00N 37°55' E 023°05'0 0.0
2018-Jul-12 11:27N 37°55' E 023°05'0 0.0
2018-Jul-12 11:00N 37°55' E 023°05'0 0.0
2018-Jul-12 10:30N 37°55' E 023°05'0 0.0
2018-Jul-12 09:57N 37°55' E 023°05'0 0.0
2018-Jul-12 09:30N 37°55' E 023°05'0 0.0
2018-Jul-12 09:00N 37°55' E 023°05'0 0.0
2018-Jul-12 08:30N 37°55' E 023°05'0 0.0
2018-Jul-12 08:00N 37°55' E 023°05'0 0.0
2018-Jul-12 07:30N 37°55' E 023°05'0 0.0
2018-Jul-12 07:00N 37°55' E 023°05'0 0.0
2018-Jul-12 06:30N 37°55' E 023°05'0 0.0
2018-Jul-12 06:00N 37°55' E 023°05'0 0.0
2018-Jul-12 05:30N 37°55' E 023°05'0 0.0
2018-Jul-12 05:00N 37°55' E 023°05'0 0.0
2018-Jul-12 04:30N 37°55' E 023°05'0 0.0
2018-Jul-12 04:00N 37°55' E 023°05'0 0.0
2018-Jul-12 03:30N 37°55' E 023°05'0 0.0
2018-Jul-12 03:00N 37°55' E 023°05'0 0.0
2018-Jul-12 02:30N 37°55' E 023°05'0 0.0
2018-Jul-12 02:00N 37°55' E 023°05'0 0.0
2018-Jul-12 01:30N 37°55' E 023°05'0 0.0
2018-Jul-12 01:00N 37°55' E 023°05'0 0.0
2018-Jul-12 00:30N 37°55' E 023°05'0 0.0
2018-Jul-12 00:00N 37°55' E 023°05'0 0.0
2018-Jul-11 23:30N 37°55' E 023°05'0 0.0
2018-Jul-11 23:00N 37°55' E 023°05'0 0.0
2018-Jul-11 22:30N 37°55' E 023°05'0 0.0
2018-Jul-11 22:00N 37°55' E 023°05'0 0.0
2018-Jul-11 21:30N 37°55' E 023°05'0 0.0
2018-Jul-11 21:00N 37°55' E 023°05'0 0.0
2018-Jul-11 20:30N 37°55' E 023°05'0 0.0
2018-Jul-11 20:00N 37°55' E 023°05'0 0.0
2018-Jul-11 19:30N 37°55' E 023°05'0 0.1
2018-Jul-11 19:00N 37°55' E 023°05'1 1.4
2018-Jul-11 18:30N 37°55' E 023°06'0 0.8
2018-Jul-11 17:59N 37°55' E 023°07'0 0.0
2018-Jul-11 17:23N 37°55' E 023°07'0 0.0
2018-Jul-11 16:59N 37°55' E 023°07'0 0.2
2018-Jul-11 16:29N 37°55' E 023°07'0 0.1
2018-Jul-11 15:59N 37°55' E 023°07'2 3.7
2018-Jul-11 15:30N 37°54' E 023°08'611.2
2018-Jul-11 15:00N 37°49' E 023°13'612.9
2018-Jul-11 14:30N 37°44' E 023°17'510.7
2018-Jul-11 14:00N 37°39' E 023°21'612.8
2018-Jul-11 13:30N 37°38' E 023°29'612.9
2018-Jul-11 13:00N 37°34' E 023°35'713.0
2018-Jul-11 12:30N 37°30' E 023°42'  
2018-Jul-08 14:41N 37°25' E 023°47'211.9
2018-Jul-08 14:29N 37°27' E 023°45'611.6
2018-Jul-08 14:00N 37°31' E 023°40'711.7
2018-Jul-08 13:26N 37°35' E 023°34'511.7
2018-Jul-08 13:00N 37°38' E 023°29'611.7
2018-Jul-08 12:30N 37°39' E 023°22'5 9.7
2018-Jul-08 12:00N 37°43' E 023°17'611.8
2018-Jul-08 11:30N 37°48' E 023°13'612.1
2018-Jul-08 11:00N 37°53' E 023°09'4 7.2
2018-Jul-08 10:30N 37°55' E 023°05'0 0.2
2018-Jul-08 10:00N 37°55' E 023°05'  
Track history (hours):
 
Tides and Currents Weather Stations Pressure Air Temp Water Temp Dewpoint Dewpoint Depression Visibility Wind Speed Wind Dir Waves Ship Positions

Eviapetrol IV

Last reported at 2018-Jul-18 09:41 UTC. Time now 2018-Jul-19 23:10 UTC.
Position N 37°31' E 023°40'.

Length 92 m; draft 5.5 m.

Type: Tanker. MMSI: 241262000.

Date/timePositionNaut miles runAvg speedWind from/ knotsBaromVisibWave heightAir tempDewpointWater temp
2018-Jul-18 09:41N 37°31' E 023°40'312.5
2018-Jul-18 09:29N 37°33' E 023°37'712.5
2018-Jul-18 08:57N 37°37' E 023°31'511.8
2018-Jul-18 08:30N 37°39' E 023°25'612.0
2018-Jul-18 08:00N 37°40' E 023°17'612.4
2018-Jul-18 07:30N 37°46' E 023°15'612.9
2018-Jul-18 07:00N 37°51' E 023°10'5 9.1
2018-Jul-18 06:30N 37°54' E 023°06'1 2.0
2018-Jul-18 06:00N 37°55' E 023°05'0 0.0
2018-Jul-18 05:30N 37°55' E 023°05'0 0.0
2018-Jul-18 05:00N 37°55' E 023°05'0 0.0
2018-Jul-18 04:30N 37°55' E 023°05'0 0.0
2018-Jul-18 04:00N 37°55' E 023°05'0 0.0
2018-Jul-18 03:30N 37°55' E 023°05'0 0.0
2018-Jul-18 03:00N 37°55' E 023°05'0 0.0
2018-Jul-18 02:30N 37°55' E 023°05'0 0.0
2018-Jul-18 02:00N 37°55' E 023°05'0 0.0
2018-Jul-18 01:30N 37°55' E 023°05'0 0.0
2018-Jul-18 01:00N 37°55' E 023°05'0 0.0
2018-Jul-18 00:30N 37°55' E 023°05'0 0.0
2018-Jul-18 00:00N 37°55' E 023°05'0 0.0
2018-Jul-17 23:30N 37°55' E 023°05'0 0.0
2018-Jul-17 23:00N 37°55' E 023°05'0 0.0
2018-Jul-17 22:30N 37°55' E 023°05'0 0.0
2018-Jul-17 22:00N 37°55' E 023°05'0 0.0
2018-Jul-17 21:30N 37°55' E 023°05'0 0.0
2018-Jul-17 21:00N 37°55' E 023°05'0 0.0
2018-Jul-17 20:30N 37°55' E 023°05'0 0.0
2018-Jul-17 20:00N 37°55' E 023°05'0 0.0
2018-Jul-17 19:30N 37°55' E 023°05'0 0.0
2018-Jul-17 19:00N 37°55' E 023°05'0 0.0
2018-Jul-17 18:30N 37°55' E 023°05'0 0.0
2018-Jul-17 18:00N 37°55' E 023°05'0 0.0
2018-Jul-17 17:30N 37°55' E 023°05'0 0.0
2018-Jul-17 17:00N 37°55' E 023°05'0 0.0
2018-Jul-17 16:30N 37°55' E 023°05'0 0.0
2018-Jul-17 16:00N 37°55' E 023°05'0 0.0
2018-Jul-17 15:30N 37°55' E 023°05'0 0.0
2018-Jul-17 15:00N 37°55' E 023°05'0 0.0
2018-Jul-17 14:30N 37°55' E 023°05'0 0.0
2018-Jul-17 14:00N 37°55' E 023°05'0 0.0
2018-Jul-17 13:30N 37°55' E 023°05'0 0.0
2018-Jul-17 13:00N 37°55' E 023°05'0 0.0
2018-Jul-17 12:30N 37°55' E 023°05'0 0.0
2018-Jul-17 12:00N 37°55' E 023°05'0 0.0
2018-Jul-17 11:30N 37°55' E 023°05'0 0.0
2018-Jul-17 11:00N 37°55' E 023°05'0 0.0
2018-Jul-17 10:30N 37°55' E 023°05'0 0.0
2018-Jul-17 10:00N 37°55' E 023°05'1 1.1
2018-Jul-17 09:30N 37°55' E 023°06'4 7.3
2018-Jul-17 09:00N 37°52' E 023°09'510.9
2018-Jul-17 08:30N 37°48' E 023°13'612.7
2018-Jul-17 08:00N 37°42' E 023°17'611.1
2018-Jul-17 07:30N 37°39' E 023°23'612.3
2018-Jul-17 07:01N 37°37' E 023°31'612.4
2018-Jul-17 06:30N 37°33' E 023°37'612.3
2018-Jul-17 06:00N 37°29' E 023°43'612.1
2018-Jul-17 05:30N 37°26' E 023°49'612.4
2018-Jul-17 05:00N 37°22' E 023°55'612.8
2018-Jul-17 04:30N 37°17' E 024°01'912.9
2018-Jul-17 03:50N 37°12' E 024°09'  
2018-Jul-12 17:25N 37°28' E 023°44'512.1
2018-Jul-12 16:59N 37°31' E 023°39'612.1
2018-Jul-12 16:30N 37°35' E 023°33'611.9
2018-Jul-12 16:00N 37°39' E 023°27'611.7
2018-Jul-12 15:30N 37°40' E 023°20'510.2
2018-Jul-12 15:00N 37°44' E 023°17'612.0
2018-Jul-12 14:30N 37°49' E 023°12'612.0
2018-Jul-12 14:00N 37°54' E 023°07'2 4.5
2018-Jul-12 13:30N 37°55' E 023°05'0 0.0
2018-Jul-12 13:00N 37°55' E 023°05'0 0.0
2018-Jul-12 12:30N 37°55' E 023°05'0 0.0
2018-Jul-12 12:00N 37°55' E 023°05'0 0.0
2018-Jul-12 11:27N 37°55' E 023°05'0 0.0
2018-Jul-12 11:00N 37°55' E 023°05'0 0.0
2018-Jul-12 10:30N 37°55' E 023°05'0 0.0
2018-Jul-12 09:57N 37°55' E 023°05'0 0.0
2018-Jul-12 09:30N 37°55' E 023°05'0 0.0
2018-Jul-12 09:00N 37°55' E 023°05'0 0.0
2018-Jul-12 08:30N 37°55' E 023°05'0 0.0
2018-Jul-12 08:00N 37°55' E 023°05'0 0.0
2018-Jul-12 07:30N 37°55' E 023°05'0 0.0
2018-Jul-12 07:00N 37°55' E 023°05'0 0.0
2018-Jul-12 06:30N 37°55' E 023°05'0 0.0
2018-Jul-12 06:00N 37°55' E 023°05'0 0.0
2018-Jul-12 05:30N 37°55' E 023°05'0 0.0
2018-Jul-12 05:00N 37°55' E 023°05'0 0.0
2018-Jul-12 04:30N 37°55' E 023°05'0 0.0
2018-Jul-12 04:00N 37°55' E 023°05'0 0.0
2018-Jul-12 03:30N 37°55' E 023°05'0 0.0
2018-Jul-12 03:00N 37°55' E 023°05'0 0.0
2018-Jul-12 02:30N 37°55' E 023°05'0 0.0
2018-Jul-12 02:00N 37°55' E 023°05'0 0.0
2018-Jul-12 01:30N 37°55' E 023°05'0 0.0
2018-Jul-12 01:00N 37°55' E 023°05'0 0.0
2018-Jul-12 00:30N 37°55' E 023°05'0 0.0
2018-Jul-12 00:00N 37°55' E 023°05'0 0.0
2018-Jul-11 23:30N 37°55' E 023°05'0 0.0
2018-Jul-11 23:00N 37°55' E 023°05'0 0.0
2018-Jul-11 22:30N 37°55' E 023°05'0 0.0
2018-Jul-11 22:00N 37°55' E 023°05'0 0.0
2018-Jul-11 21:30N 37°55' E 023°05'0 0.0
2018-Jul-11 21:00N 37°55' E 023°05'0 0.0
2018-Jul-11 20:30N 37°55' E 023°05'0 0.0
2018-Jul-11 20:00N 37°55' E 023°05'0 0.0
2018-Jul-11 19:30N 37°55' E 023°05'0 0.1
2018-Jul-11 19:00N 37°55' E 023°05'1 1.4
2018-Jul-11 18:30N 37°55' E 023°06'0 0.8
2018-Jul-11 17:59N 37°55' E 023°07'0 0.0
2018-Jul-11 17:23N 37°55' E 023°07'0 0.0
2018-Jul-11 16:59N 37°55' E 023°07'0 0.2
2018-Jul-11 16:29N 37°55' E 023°07'0 0.1
2018-Jul-11 15:59N 37°55' E 023°07'2 3.7
2018-Jul-11 15:30N 37°54' E 023°08'611.2
2018-Jul-11 15:00N 37°49' E 023°13'612.9
2018-Jul-11 14:30N 37°44' E 023°17'510.7
2018-Jul-11 14:00N 37°39' E 023°21'612.8
2018-Jul-11 13:30N 37°38' E 023°29'612.9
2018-Jul-11 13:00N 37°34' E 023°35'713.0
2018-Jul-11 12:30N 37°30' E 023°42'  
2018-Jul-08 14:41N 37°25' E 023°47'211.9
2018-Jul-08 14:29N 37°27' E 023°45'611.6
2018-Jul-08 14:00N 37°31' E 023°40'711.7
2018-Jul-08 13:26N 37°35' E 023°34'511.7
2018-Jul-08 13:00N 37°38' E 023°29'611.7
2018-Jul-08 12:30N 37°39' E 023°22'5 9.7
2018-Jul-08 12:00N 37°43' E 023°17'611.8
2018-Jul-08 11:30N 37°48' E 023°13'612.1
2018-Jul-08 11:00N 37°53' E 023°09'4 7.2
2018-Jul-08 10:30N 37°55' E 023°05'0 0.2
2018-Jul-08 10:00N 37°55' E 023°05'  

Dump ship's entire track history